sensor_id;sensor_type;location;lat;lon;timestamp;P1;durP1;ratioP1;P2;durP2;ratioP2
11004;SDS011;5555;59.622;16.556;2022-07-23T00:00:31;1.90;;;1.80;;
11004;SDS011;5555;59.622;16.556;2022-07-23T00:02:57;2.30;;;1.67;;
11004;SDS011;5555;59.622;16.556;2022-07-23T00:05:22;3.33;;;1.60;;
11004;SDS011;5555;59.622;16.556;2022-07-23T00:07:48;2.87;;;1.70;;
11004;SDS011;5555;59.622;16.556;2022-07-23T00:10:13;3.03;;;2.10;;
11004;SDS011;5555;59.622;16.556;2022-07-23T00:12:39;2.97;;;2.20;;
11004;SDS011;5555;59.622;16.556;2022-07-23T00:15:06;2.43;;;1.77;;
11004;SDS011;5555;59.622;16.556;2022-07-23T00:17:32;3.67;;;2.00;;
11004;SDS011;5555;59.622;16.556;2022-07-23T00:19:58;3.10;;;2.07;;
11004;SDS011;5555;59.622;16.556;2022-07-23T00:22:24;3.87;;;2.37;;
11004;SDS011;5555;59.622;16.556;2022-07-23T00:24:49;3.80;;;2.47;;
11004;SDS011;5555;59.622;16.556;2022-07-23T00:27:15;2.83;;;2.30;;
11004;SDS011;5555;59.622;16.556;2022-07-23T00:29:41;3.63;;;2.40;;
11004;SDS011;5555;59.622;16.556;2022-07-23T00:32:06;3.03;;;2.17;;
11004;SDS011;5555;59.622;16.556;2022-07-23T00:34:32;2.43;;;2.23;;
11004;SDS011;5555;59.622;16.556;2022-07-23T00:36:57;5.53;;;2.80;;
11004;SDS011;5555;59.622;16.556;2022-07-23T00:39:23;4.70;;;2.70;;
11004;SDS011;5555;59.622;16.556;2022-07-23T00:41:49;3.10;;;2.57;;
11004;SDS011;5555;59.622;16.556;2022-07-23T00:44:20;2.77;;;2.57;;
11004;SDS011;5555;59.622;16.556;2022-07-23T00:46:48;3.90;;;2.67;;
11004;SDS011;5555;59.622;16.556;2022-07-23T00:49:31;4.47;;;2.77;;
11004;SDS011;5555;59.622;16.556;2022-07-23T00:51:57;4.73;;;2.60;;
11004;SDS011;5555;59.622;16.556;2022-07-23T00:54:23;3.90;;;2.87;;
11004;SDS011;5555;59.622;16.556;2022-07-23T00:56:50;3.43;;;2.67;;
11004;SDS011;5555;59.622;16.556;2022-07-23T00:59:16;4.17;;;3.07;;
11004;SDS011;5555;59.622;16.556;2022-07-23T01:01:42;5.40;;;3.20;;
11004;SDS011;5555;59.622;16.556;2022-07-23T01:04:09;5.77;;;2.80;;
11004;SDS011;5555;59.622;16.556;2022-07-23T01:06:36;6.20;;;3.20;;
11004;SDS011;5555;59.622;16.556;2022-07-23T01:09:03;4.67;;;3.53;;
11004;SDS011;5555;59.622;16.556;2022-07-23T01:11:31;5.27;;;3.17;;
11004;SDS011;5555;59.622;16.556;2022-07-23T01:14:11;3.30;;;3.00;;
11004;SDS011;5555;59.622;16.556;2022-07-23T01:16:38;3.07;;;2.77;;
11004;SDS011;5555;59.622;16.556;2022-07-23T01:19:05;3.73;;;3.43;;
11004;SDS011;5555;59.622;16.556;2022-07-23T01:21:42;5.93;;;3.07;;
11004;SDS011;5555;59.622;16.556;2022-07-23T01:24:10;4.20;;;3.23;;
11004;SDS011;5555;59.622;16.556;2022-07-23T01:26:36;4.03;;;3.10;;
11004;SDS011;5555;59.622;16.556;2022-07-23T01:29:02;3.50;;;3.20;;
11004;SDS011;5555;59.622;16.556;2022-07-23T01:31:28;4.07;;;3.40;;
11004;SDS011;5555;59.622;16.556;2022-07-23T01:33:54;3.53;;;2.90;;
11004;SDS011;5555;59.622;16.556;2022-07-23T01:36:20;3.57;;;2.90;;
11004;SDS011;5555;59.622;16.556;2022-07-23T01:38:47;4.50;;;3.57;;
11004;SDS011;5555;59.622;16.556;2022-07-23T01:41:13;6.07;;;3.37;;
11004;SDS011;5555;59.622;16.556;2022-07-23T01:43:39;3.77;;;3.23;;
11004;SDS011;5555;59.622;16.556;2022-07-23T01:46:04;3.37;;;3.07;;
11004;SDS011;5555;59.622;16.556;2022-07-23T01:48:30;4.87;;;3.30;;
11004;SDS011;5555;59.622;16.556;2022-07-23T01:50:56;3.43;;;3.13;;
11004;SDS011;5555;59.622;16.556;2022-07-23T01:53:21;4.53;;;2.90;;
11004;SDS011;5555;59.622;16.556;2022-07-23T01:55:47;4.60;;;2.87;;
11004;SDS011;5555;59.622;16.556;2022-07-23T01:58:13;3.67;;;3.33;;
11004;SDS011;5555;59.622;16.556;2022-07-23T02:00:39;3.57;;;2.70;;
11004;SDS011;5555;59.622;16.556;2022-07-23T02:03:04;3.00;;;2.70;;
11004;SDS011;5555;59.622;16.556;2022-07-23T02:05:30;2.63;;;2.43;;
11004;SDS011;5555;59.622;16.556;2022-07-23T02:07:57;3.30;;;3.00;;
11004;SDS011;5555;59.622;16.556;2022-07-23T02:10:23;3.10;;;2.80;;
11004;SDS011;5555;59.622;16.556;2022-07-23T02:12:49;2.90;;;2.50;;
11004;SDS011;5555;59.622;16.556;2022-07-23T02:15:15;3.43;;;2.77;;
11004;SDS011;5555;59.622;16.556;2022-07-23T02:17:40;2.27;;;2.07;;
11004;SDS011;5555;59.622;16.556;2022-07-23T02:20:06;4.03;;;2.50;;
11004;SDS011;5555;59.622;16.556;2022-07-23T02:22:33;2.23;;;2.00;;
11004;SDS011;5555;59.622;16.556;2022-07-23T02:24:59;4.27;;;2.67;;
11004;SDS011;5555;59.622;16.556;2022-07-23T02:27:25;2.60;;;2.40;;
11004;SDS011;5555;59.622;16.556;2022-07-23T02:29:51;3.47;;;2.43;;
11004;SDS011;5555;59.622;16.556;2022-07-23T02:32:16;3.23;;;1.97;;
11004;SDS011;5555;59.622;16.556;2022-07-23T02:34:42;2.07;;;1.90;;
11004;SDS011;5555;59.622;16.556;2022-07-23T02:37:08;2.20;;;1.93;;
11004;SDS011;5555;59.622;16.556;2022-07-23T02:39:34;3.33;;;1.90;;
11004;SDS011;5555;59.622;16.556;2022-07-23T02:42:00;3.37;;;2.17;;
11004;SDS011;5555;59.622;16.556;2022-07-23T02:44:26;1.80;;;1.70;;
11004;SDS011;5555;59.622;16.556;2022-07-23T02:46:52;2.87;;;1.93;;
11004;SDS011;5555;59.622;16.556;2022-07-23T02:49:17;3.37;;;1.83;;
11004;SDS011;5555;59.622;16.556;2022-07-23T02:51:43;2.70;;;1.70;;
11004;SDS011;5555;59.622;16.556;2022-07-23T02:54:08;3.63;;;2.00;;
11004;SDS011;5555;59.622;16.556;2022-07-23T02:56:34;1.80;;;1.60;;
11004;SDS011;5555;59.622;16.556;2022-07-23T02:59:00;3.43;;;1.60;;
11004;SDS011;5555;59.622;16.556;2022-07-23T03:01:25;2.57;;;1.43;;
11004;SDS011;5555;59.622;16.556;2022-07-23T03:03:51;1.77;;;1.67;;
11004;SDS011;5555;59.622;16.556;2022-07-23T03:06:18;2.97;;;1.40;;
11004;SDS011;5555;59.622;16.556;2022-07-23T03:08:43;1.60;;;1.50;;
11004;SDS011;5555;59.622;16.556;2022-07-23T03:11:09;1.63;;;1.53;;
11004;SDS011;5555;59.622;16.556;2022-07-23T03:13:38;1.73;;;1.63;;
11004;SDS011;5555;59.622;16.556;2022-07-23T03:16:04;1.77;;;1.20;;
11004;SDS011;5555;59.622;16.556;2022-07-23T03:18:29;2.60;;;1.40;;
11004;SDS011;5555;59.622;16.556;2022-07-23T03:20:55;2.17;;;1.20;;
11004;SDS011;5555;59.622;16.556;2022-07-23T03:23:21;1.40;;;1.30;;
11004;SDS011;5555;59.622;16.556;2022-07-23T03:25:46;3.93;;;1.30;;
11004;SDS011;5555;59.622;16.556;2022-07-23T03:28:15;1.80;;;1.27;;
11004;SDS011;5555;59.622;16.556;2022-07-23T03:30:42;1.30;;;1.20;;
11004;SDS011;5555;59.622;16.556;2022-07-23T03:33:11;1.40;;;1.30;;
11004;SDS011;5555;59.622;16.556;2022-07-23T03:35:44;1.33;;;1.10;;
11004;SDS011;5555;59.622;16.556;2022-07-23T03:38:11;1.57;;;1.03;;
11004;SDS011;5555;59.622;16.556;2022-07-23T03:40:37;1.73;;;1.10;;
11004;SDS011;5555;59.622;16.556;2022-07-23T03:43:02;1.80;;;1.20;;
11004;SDS011;5555;59.622;16.556;2022-07-23T03:45:28;1.03;;;1.03;;
11004;SDS011;5555;59.622;16.556;2022-07-23T03:47:54;1.10;;;1.00;;
11004;SDS011;5555;59.622;16.556;2022-07-23T03:50:19;1.60;;;0.90;;
11004;SDS011;5555;59.622;16.556;2022-07-23T03:52:45;1.10;;;1.00;;
11004;SDS011;5555;59.622;16.556;2022-07-23T03:55:11;1.00;;;1.00;;
11004;SDS011;5555;59.622;16.556;2022-07-23T03:57:36;1.23;;;1.13;;
11004;SDS011;5555;59.622;16.556;2022-07-23T04:00:03;1.30;;;1.10;;
11004;SDS011;5555;59.622;16.556;2022-07-23T04:02:31;1.10;;;1.00;;
11004;SDS011;5555;59.622;16.556;2022-07-23T04:04:56;2.57;;;1.00;;
11004;SDS011;5555;59.622;16.556;2022-07-23T04:07:22;1.43;;;1.10;;
11004;SDS011;5555;59.622;16.556;2022-07-23T04:09:48;1.90;;;1.00;;
11004;SDS011;5555;59.622;16.556;2022-07-23T04:12:13;1.10;;;1.03;;
11004;SDS011;5555;59.622;16.556;2022-07-23T04:14:39;1.73;;;1.10;;
11004;SDS011;5555;59.622;16.556;2022-07-23T04:17:05;1.70;;;0.90;;
11004;SDS011;5555;59.622;16.556;2022-07-23T04:19:31;0.83;;;0.83;;
11004;SDS011;5555;59.622;16.556;2022-07-23T04:21:57;1.07;;;0.97;;
11004;SDS011;5555;59.622;16.556;2022-07-23T04:24:22;2.70;;;1.00;;
11004;SDS011;5555;59.622;16.556;2022-07-23T04:26:48;0.90;;;0.90;;
11004;SDS011;5555;59.622;16.556;2022-07-23T04:29:14;0.73;;;0.73;;
11004;SDS011;5555;59.622;16.556;2022-07-23T04:31:39;1.03;;;0.97;;
11004;SDS011;5555;59.622;16.556;2022-07-23T04:34:05;1.27;;;0.80;;
11004;SDS011;5555;59.622;16.556;2022-07-23T04:36:31;1.03;;;0.90;;
11004;SDS011;5555;59.622;16.556;2022-07-23T04:38:56;1.93;;;1.20;;
11004;SDS011;5555;59.622;16.556;2022-07-23T04:41:22;1.33;;;1.10;;
11004;SDS011;5555;59.622;16.556;2022-07-23T04:43:48;1.60;;;0.97;;
11004;SDS011;5555;59.622;16.556;2022-07-23T04:46:13;1.50;;;0.63;;
11004;SDS011;5555;59.622;16.556;2022-07-23T04:48:39;2.07;;;0.90;;
11004;SDS011;5555;59.622;16.556;2022-07-23T04:51:05;1.67;;;0.90;;
11004;SDS011;5555;59.622;16.556;2022-07-23T04:53:31;0.63;;;0.60;;
11004;SDS011;5555;59.622;16.556;2022-07-23T04:55:57;1.97;;;0.50;;
11004;SDS011;5555;59.622;16.556;2022-07-23T04:58:22;2.53;;;0.70;;
11004;SDS011;5555;59.622;16.556;2022-07-23T05:00:48;1.23;;;0.80;;
11004;SDS011;5555;59.622;16.556;2022-07-23T05:03:14;1.10;;;0.70;;
11004;SDS011;5555;59.622;16.556;2022-07-23T05:05:40;1.40;;;0.70;;
11004;SDS011;5555;59.622;16.556;2022-07-23T05:08:06;1.30;;;0.73;;
11004;SDS011;5555;59.622;16.556;2022-07-23T05:10:31;0.70;;;0.70;;
11004;SDS011;5555;59.622;16.556;2022-07-23T05:12:57;0.90;;;0.70;;
11004;SDS011;5555;59.622;16.556;2022-07-23T05:15:23;0.97;;;0.70;;
11004;SDS011;5555;59.622;16.556;2022-07-23T05:17:48;0.80;;;0.80;;
11004;SDS011;5555;59.622;16.556;2022-07-23T05:20:14;1.00;;;0.80;;
11004;SDS011;5555;59.622;16.556;2022-07-23T05:22:40;1.20;;;0.80;;
11004;SDS011;5555;59.622;16.556;2022-07-23T05:25:06;0.70;;;0.70;;
11004;SDS011;5555;59.622;16.556;2022-07-23T05:27:32;1.10;;;0.77;;
11004;SDS011;5555;59.622;16.556;2022-07-23T05:29:57;0.83;;;0.70;;
11004;SDS011;5555;59.622;16.556;2022-07-23T05:32:23;0.97;;;0.60;;
11004;SDS011;5555;59.622;16.556;2022-07-23T05:34:49;2.07;;;0.80;;
11004;SDS011;5555;59.622;16.556;2022-07-23T05:37:15;1.00;;;0.60;;
11004;SDS011;5555;59.622;16.556;2022-07-23T05:39:41;1.13;;;0.70;;
11004;SDS011;5555;59.622;16.556;2022-07-23T05:42:06;1.77;;;0.90;;
11004;SDS011;5555;59.622;16.556;2022-07-23T05:44:32;1.23;;;0.60;;
11004;SDS011;5555;59.622;16.556;2022-07-23T05:46:58;0.93;;;0.70;;
11004;SDS011;5555;59.622;16.556;2022-07-23T05:49:24;0.60;;;0.60;;
11004;SDS011;5555;59.622;16.556;2022-07-23T05:51:49;0.93;;;0.70;;
11004;SDS011;5555;59.622;16.556;2022-07-23T05:54:15;0.80;;;0.80;;
11004;SDS011;5555;59.622;16.556;2022-07-23T05:56:41;2.20;;;0.80;;
11004;SDS011;5555;59.622;16.556;2022-07-23T05:59:07;1.07;;;0.70;;
11004;SDS011;5555;59.622;16.556;2022-07-23T06:01:33;0.90;;;0.80;;
11004;SDS011;5555;59.622;16.556;2022-07-23T06:03:58;0.83;;;0.70;;
11004;SDS011;5555;59.622;16.556;2022-07-23T06:06:24;2.30;;;0.80;;
11004;SDS011;5555;59.622;16.556;2022-07-23T06:08:50;1.13;;;0.80;;
11004;SDS011;5555;59.622;16.556;2022-07-23T06:11:15;1.53;;;0.73;;
11004;SDS011;5555;59.622;16.556;2022-07-23T06:13:41;1.07;;;0.97;;
11004;SDS011;5555;59.622;16.556;2022-07-23T06:16:06;1.47;;;1.00;;
11004;SDS011;5555;59.622;16.556;2022-07-23T06:18:32;0.80;;;0.80;;
11004;SDS011;5555;59.622;16.556;2022-07-23T06:20:58;1.27;;;0.90;;
11004;SDS011;5555;59.622;16.556;2022-07-23T06:23:23;0.83;;;0.83;;
11004;SDS011;5555;59.622;16.556;2022-07-23T06:25:49;1.63;;;1.10;;
11004;SDS011;5555;59.622;16.556;2022-07-23T06:28:15;3.70;;;1.20;;
11004;SDS011;5555;59.622;16.556;2022-07-23T06:30:40;2.97;;;0.97;;
11004;SDS011;5555;59.622;16.556;2022-07-23T06:33:06;1.10;;;0.90;;
11004;SDS011;5555;59.622;16.556;2022-07-23T06:35:32;1.13;;;1.10;;
11004;SDS011;5555;59.622;16.556;2022-07-23T06:37:58;1.67;;;0.87;;
11004;SDS011;5555;59.622;16.556;2022-07-23T06:40:24;2.60;;;1.10;;
11004;SDS011;5555;59.622;16.556;2022-07-23T06:42:50;1.10;;;1.00;;
11004;SDS011;5555;59.622;16.556;2022-07-23T06:45:16;1.00;;;0.90;;
11004;SDS011;5555;59.622;16.556;2022-07-23T06:47:41;0.87;;;0.87;;
11004;SDS011;5555;59.622;16.556;2022-07-23T06:50:07;1.20;;;0.80;;
11004;SDS011;5555;59.622;16.556;2022-07-23T06:52:33;0.80;;;0.80;;
11004;SDS011;5555;59.622;16.556;2022-07-23T06:54:59;2.20;;;0.83;;
11004;SDS011;5555;59.622;16.556;2022-07-23T06:57:25;1.60;;;1.10;;
11004;SDS011;5555;59.622;16.556;2022-07-23T06:59:51;1.17;;;0.90;;
11004;SDS011;5555;59.622;16.556;2022-07-23T07:02:17;1.13;;;0.83;;
11004;SDS011;5555;59.622;16.556;2022-07-23T07:04:42;1.97;;;1.10;;
11004;SDS011;5555;59.622;16.556;2022-07-23T07:07:08;1.00;;;0.90;;
11004;SDS011;5555;59.622;16.556;2022-07-23T07:09:34;1.20;;;1.10;;
11004;SDS011;5555;59.622;16.556;2022-07-23T07:11:59;1.97;;;1.00;;
11004;SDS011;5555;59.622;16.556;2022-07-23T07:14:25;1.40;;;1.13;;
11004;SDS011;5555;59.622;16.556;2022-07-23T07:16:51;1.37;;;1.00;;
11004;SDS011;5555;59.622;16.556;2022-07-23T07:19:16;1.13;;;0.83;;
11004;SDS011;5555;59.622;16.556;2022-07-23T07:21:42;0.80;;;0.80;;
11004;SDS011;5555;59.622;16.556;2022-07-23T07:24:08;1.23;;;0.90;;
11004;SDS011;5555;59.622;16.556;2022-07-23T07:26:33;1.77;;;0.90;;
11004;SDS011;5555;59.622;16.556;2022-07-23T07:28:59;1.97;;;0.87;;
11004;SDS011;5555;59.622;16.556;2022-07-23T07:31:25;0.90;;;0.90;;
11004;SDS011;5555;59.622;16.556;2022-07-23T07:33:51;0.87;;;0.87;;
11004;SDS011;5555;59.622;16.556;2022-07-23T07:36:17;1.57;;;0.83;;
11004;SDS011;5555;59.622;16.556;2022-07-23T07:38:42;0.90;;;0.77;;
11004;SDS011;5555;59.622;16.556;2022-07-23T07:41:08;1.57;;;1.00;;
11004;SDS011;5555;59.622;16.556;2022-07-23T07:43:35;1.57;;;0.93;;
11004;SDS011;5555;59.622;16.556;2022-07-23T07:46:02;1.50;;;0.90;;
11004;SDS011;5555;59.622;16.556;2022-07-23T07:48:28;2.20;;;0.93;;
11004;SDS011;5555;59.622;16.556;2022-07-23T07:50:53;0.60;;;0.60;;
11004;SDS011;5555;59.622;16.556;2022-07-23T07:53:19;0.97;;;0.80;;
11004;SDS011;5555;59.622;16.556;2022-07-23T07:55:45;1.10;;;1.00;;
11004;SDS011;5555;59.622;16.556;2022-07-23T07:58:10;0.87;;;0.87;;
11004;SDS011;5555;59.622;16.556;2022-07-23T08:00:36;1.37;;;0.70;;
11004;SDS011;5555;59.622;16.556;2022-07-23T08:03:02;1.27;;;1.17;;
11004;SDS011;5555;59.622;16.556;2022-07-23T08:05:28;1.40;;;0.97;;
11004;SDS011;5555;59.622;16.556;2022-07-23T08:07:54;2.20;;;0.90;;
11004;SDS011;5555;59.622;16.556;2022-07-23T08:10:21;1.53;;;0.80;;
11004;SDS011;5555;59.622;16.556;2022-07-23T08:12:48;1.20;;;1.10;;
11004;SDS011;5555;59.622;16.556;2022-07-23T08:15:16;1.67;;;1.30;;
11004;SDS011;5555;59.622;16.556;2022-07-23T08:17:44;1.40;;;1.30;;
11004;SDS011;5555;59.622;16.556;2022-07-23T08:20:11;1.50;;;1.40;;
11004;SDS011;5555;59.622;16.556;2022-07-23T08:22:56;1.20;;;1.10;;
11004;SDS011;5555;59.622;16.556;2022-07-23T08:25:25;3.00;;;1.20;;
11004;SDS011;5555;59.622;16.556;2022-07-23T08:27:51;1.23;;;1.13;;
11004;SDS011;5555;59.622;16.556;2022-07-23T08:30:17;1.47;;;1.30;;
11004;SDS011;5555;59.622;16.556;2022-07-23T08:35:15;1.33;;;1.00;;
11004;SDS011;5555;59.622;16.556;2022-07-23T08:37:41;1.10;;;1.00;;
11004;SDS011;5555;59.622;16.556;2022-07-23T08:40:07;1.73;;;0.73;;
11004;SDS011;5555;59.622;16.556;2022-07-23T08:42:33;0.70;;;0.70;;
11004;SDS011;5555;59.622;16.556;2022-07-23T08:45:03;1.13;;;0.90;;
11004;SDS011;5555;59.622;16.556;2022-07-23T08:47:29;1.07;;;0.90;;
11004;SDS011;5555;59.622;16.556;2022-07-23T08:49:55;1.30;;;1.07;;
11004;SDS011;5555;59.622;16.556;2022-07-23T08:52:23;1.17;;;0.90;;
11004;SDS011;5555;59.622;16.556;2022-07-23T08:54:49;0.93;;;0.90;;
11004;SDS011;5555;59.622;16.556;2022-07-23T08:57:16;1.20;;;0.90;;
11004;SDS011;5555;59.622;16.556;2022-07-23T08:59:42;1.70;;;1.10;;
11004;SDS011;5555;59.622;16.556;2022-07-23T09:02:07;0.80;;;0.80;;
11004;SDS011;5555;59.622;16.556;2022-07-23T09:04:33;2.17;;;1.10;;
11004;SDS011;5555;59.622;16.556;2022-07-23T09:07:00;1.07;;;0.97;;
11004;SDS011;5555;59.622;16.556;2022-07-23T09:09:27;3.30;;;1.13;;
11004;SDS011;5555;59.622;16.556;2022-07-23T09:12:05;1.27;;;1.00;;
11004;SDS011;5555;59.622;16.556;2022-07-23T09:14:40;1.23;;;1.00;;
11004;SDS011;5555;59.622;16.556;2022-07-23T09:17:13;1.93;;;1.83;;
11004;SDS011;5555;59.622;16.556;2022-07-23T09:19:41;1.20;;;1.10;;
11004;SDS011;5555;59.622;16.556;2022-07-23T09:27:54;1.30;;;1.20;;
11004;SDS011;5555;59.622;16.556;2022-07-23T09:30:23;1.13;;;1.00;;
11004;SDS011;5555;59.622;16.556;2022-07-23T09:33:09;1.00;;;1.00;;
11004;SDS011;5555;59.622;16.556;2022-07-23T09:38:34;2.93;;;1.20;;
11004;SDS011;5555;59.622;16.556;2022-07-23T09:41:12;2.10;;;1.13;;
11004;SDS011;5555;59.622;16.556;2022-07-23T09:43:38;1.47;;;0.97;;
11004;SDS011;5555;59.622;16.556;2022-07-23T09:48:50;2.27;;;1.30;;
11004;SDS011;5555;59.622;16.556;2022-07-23T09:51:17;1.50;;;1.00;;
11004;SDS011;5555;59.622;16.556;2022-07-23T09:53:55;2.13;;;1.10;;
11004;SDS011;5555;59.622;16.556;2022-07-23T09:56:21;0.80;;;0.80;;
11004;SDS011;5555;59.622;16.556;2022-07-23T09:58:49;1.33;;;1.10;;
11004;SDS011;5555;59.622;16.556;2022-07-23T10:01:28;0.87;;;0.87;;
11004;SDS011;5555;59.622;16.556;2022-07-23T10:03:54;1.30;;;1.20;;
11004;SDS011;5555;59.622;16.556;2022-07-23T10:06:20;1.57;;;1.07;;
11004;SDS011;5555;59.622;16.556;2022-07-23T10:08:47;0.80;;;0.80;;
11004;SDS011;5555;59.622;16.556;2022-07-23T10:11:16;1.03;;;0.93;;
11004;SDS011;5555;59.622;16.556;2022-07-23T10:13:42;2.47;;;0.90;;
11004;SDS011;5555;59.622;16.556;2022-07-23T10:16:23;1.53;;;1.10;;
11004;SDS011;5555;59.622;16.556;2022-07-23T10:18:50;0.97;;;0.80;;
11004;SDS011;5555;59.622;16.556;2022-07-23T10:21:18;1.20;;;1.00;;
11004;SDS011;5555;59.622;16.556;2022-07-23T10:29:49;1.37;;;1.03;;
11004;SDS011;5555;59.622;16.556;2022-07-23T10:37:51;3.40;;;1.13;;
11004;SDS011;5555;59.622;16.556;2022-07-23T10:40:22;1.10;;;0.93;;
11004;SDS011;5555;59.622;16.556;2022-07-23T10:42:52;2.20;;;0.97;;
11004;SDS011;5555;59.622;16.556;2022-07-23T10:45:35;0.80;;;0.80;;
11004;SDS011;5555;59.622;16.556;2022-07-23T10:56:15;1.20;;;0.90;;
11004;SDS011;5555;59.622;16.556;2022-07-23T10:58:45;0.83;;;0.70;;
11004;SDS011;5555;59.622;16.556;2022-07-23T11:01:35;1.30;;;0.80;;
11004;SDS011;5555;59.622;16.556;2022-07-23T11:04:02;0.90;;;0.70;;
11004;SDS011;5555;59.622;16.556;2022-07-23T11:07:16;0.80;;;0.77;;
11004;SDS011;5555;59.622;16.556;2022-07-23T11:09:29;0.83;;;0.70;;
11004;SDS011;5555;59.622;16.556;2022-07-23T11:17:22;0.83;;;0.70;;
11004;SDS011;5555;59.622;16.556;2022-07-23T11:22:46;2.03;;;0.87;;
11004;SDS011;5555;59.622;16.556;2022-07-23T11:27:39;0.80;;;0.63;;
11004;SDS011;5555;59.622;16.556;2022-07-23T11:30:07;1.37;;;0.77;;
11004;SDS011;5555;59.622;16.556;2022-07-23T11:32:38;0.70;;;0.70;;
11004;SDS011;5555;59.622;16.556;2022-07-23T11:35:18;2.00;;;0.70;;
11004;SDS011;5555;59.622;16.556;2022-07-23T11:37:48;1.03;;;0.80;;
11004;SDS011;5555;59.622;16.556;2022-07-23T11:40:18;1.17;;;0.93;;
11004;SDS011;5555;59.622;16.556;2022-07-23T11:45:19;1.67;;;0.83;;
11004;SDS011;5555;59.622;16.556;2022-07-23T11:47:45;2.93;;;0.70;;
11004;SDS011;5555;59.622;16.556;2022-07-23T11:50:11;0.70;;;0.67;;
11004;SDS011;5555;59.622;16.556;2022-07-23T11:52:36;1.70;;;0.70;;
11004;SDS011;5555;59.622;16.556;2022-07-23T11:55:04;1.23;;;0.70;;
11004;SDS011;5555;59.622;16.556;2022-07-23T11:57:36;0.60;;;0.60;;
11004;SDS011;5555;59.622;16.556;2022-07-23T12:00:14;1.63;;;0.83;;
11004;SDS011;5555;59.622;16.556;2022-07-23T12:02:57;0.97;;;0.87;;
11004;SDS011;5555;59.622;16.556;2022-07-23T12:07:57;1.30;;;0.50;;
11004;SDS011;5555;59.622;16.556;2022-07-23T12:10:46;0.80;;;0.70;;
11004;SDS011;5555;59.622;16.556;2022-07-23T12:13:14;1.63;;;0.80;;
11004;SDS011;5555;59.622;16.556;2022-07-23T12:15:43;0.60;;;0.60;;
11004;SDS011;5555;59.622;16.556;2022-07-23T12:18:14;1.40;;;0.77;;
11004;SDS011;5555;59.622;16.556;2022-07-23T12:20:47;0.80;;;0.80;;
11004;SDS011;5555;59.622;16.556;2022-07-23T12:23:16;0.60;;;0.60;;
11004;SDS011;5555;59.622;16.556;2022-07-23T12:25:44;1.03;;;0.87;;
11004;SDS011;5555;59.622;16.556;2022-07-23T12:28:12;1.47;;;0.60;;
11004;SDS011;5555;59.622;16.556;2022-07-23T12:31:08;0.73;;;0.53;;
11004;SDS011;5555;59.622;16.556;2022-07-23T12:33:35;0.93;;;0.80;;
11004;SDS011;5555;59.622;16.556;2022-07-23T12:36:04;1.30;;;0.70;;
11004;SDS011;5555;59.622;16.556;2022-07-23T12:38:42;1.17;;;0.90;;
11004;SDS011;5555;59.622;16.556;2022-07-23T12:41:11;0.90;;;0.90;;
11004;SDS011;5555;59.622;16.556;2022-07-23T12:43:38;1.00;;;0.70;;
11004;SDS011;5555;59.622;16.556;2022-07-23T12:46:16;0.77;;;0.73;;
11004;SDS011;5555;59.622;16.556;2022-07-23T12:53:50;0.93;;;0.80;;
11004;SDS011;5555;59.622;16.556;2022-07-23T12:56:31;0.73;;;0.70;;
11004;SDS011;5555;59.622;16.556;2022-07-23T12:58:59;0.80;;;0.80;;
11004;SDS011;5555;59.622;16.556;2022-07-23T13:01:41;1.40;;;0.90;;
11004;SDS011;5555;59.622;16.556;2022-07-23T13:04:20;0.77;;;0.77;;
11004;SDS011;5555;59.622;16.556;2022-07-23T13:06:48;1.37;;;0.70;;
11004;SDS011;5555;59.622;16.556;2022-07-23T13:09:15;0.70;;;0.70;;
11004;SDS011;5555;59.622;16.556;2022-07-23T13:11:48;1.37;;;0.80;;
11004;SDS011;5555;59.622;16.556;2022-07-23T13:14:15;0.87;;;0.70;;
11004;SDS011;5555;59.622;16.556;2022-07-23T13:16:43;1.23;;;0.80;;
11004;SDS011;5555;59.622;16.556;2022-07-23T13:19:09;1.43;;;0.80;;
11004;SDS011;5555;59.622;16.556;2022-07-23T13:21:35;3.60;;;0.90;;
11004;SDS011;5555;59.622;16.556;2022-07-23T13:24:01;3.30;;;1.10;;
11004;SDS011;5555;59.622;16.556;2022-07-23T13:26:26;1.03;;;0.80;;
11004;SDS011;5555;59.622;16.556;2022-07-23T13:28:52;1.07;;;0.97;;
11004;SDS011;5555;59.622;16.556;2022-07-23T13:31:18;0.80;;;0.80;;
11004;SDS011;5555;59.622;16.556;2022-07-23T13:33:44;0.73;;;0.73;;
11004;SDS011;5555;59.622;16.556;2022-07-23T13:36:10;1.63;;;1.10;;
11004;SDS011;5555;59.622;16.556;2022-07-23T13:38:36;0.77;;;0.73;;
11004;SDS011;5555;59.622;16.556;2022-07-23T13:41:01;0.90;;;0.77;;
11004;SDS011;5555;59.622;16.556;2022-07-23T13:43:31;2.77;;;1.00;;
11004;SDS011;5555;59.622;16.556;2022-07-23T13:45:57;1.13;;;0.90;;
11004;SDS011;5555;59.622;16.556;2022-07-23T13:48:23;1.13;;;0.90;;
11004;SDS011;5555;59.622;16.556;2022-07-23T13:50:49;1.17;;;0.87;;
11004;SDS011;5555;59.622;16.556;2022-07-23T13:53:19;0.80;;;0.80;;
11004;SDS011;5555;59.622;16.556;2022-07-23T13:55:48;1.70;;;1.00;;
11004;SDS011;5555;59.622;16.556;2022-07-23T13:58:15;1.57;;;0.93;;
11004;SDS011;5555;59.622;16.556;2022-07-23T14:00:42;1.63;;;1.37;;
11004;SDS011;5555;59.622;16.556;2022-07-23T14:03:10;0.90;;;0.53;;
11004;SDS011;5555;59.622;16.556;2022-07-23T14:05:36;0.63;;;0.63;;
11004;SDS011;5555;59.622;16.556;2022-07-23T14:08:02;1.20;;;0.90;;
11004;SDS011;5555;59.622;16.556;2022-07-23T14:10:28;0.67;;;0.67;;
11004;SDS011;5555;59.622;16.556;2022-07-23T14:12:54;1.00;;;1.00;;
11004;SDS011;5555;59.622;16.556;2022-07-23T14:15:24;2.47;;;0.87;;
11004;SDS011;5555;59.622;16.556;2022-07-23T14:17:51;2.30;;;0.83;;
11004;SDS011;5555;59.622;16.556;2022-07-23T14:20:17;2.00;;;0.87;;
11004;SDS011;5555;59.622;16.556;2022-07-23T14:22:43;1.80;;;1.17;;
11004;SDS011;5555;59.622;16.556;2022-07-23T14:25:09;1.00;;;1.00;;
11004;SDS011;5555;59.622;16.556;2022-07-23T14:27:35;2.00;;;1.03;;
11004;SDS011;5555;59.622;16.556;2022-07-23T14:30:02;1.53;;;1.20;;
11004;SDS011;5555;59.622;16.556;2022-07-23T14:32:29;1.43;;;1.10;;
11004;SDS011;5555;59.622;16.556;2022-07-23T14:34:54;3.00;;;1.20;;
11004;SDS011;5555;59.622;16.556;2022-07-23T14:37:20;1.10;;;1.00;;
11004;SDS011;5555;59.622;16.556;2022-07-23T14:39:46;1.37;;;1.10;;
11004;SDS011;5555;59.622;16.556;2022-07-23T14:42:12;1.10;;;1.00;;
11004;SDS011;5555;59.622;16.556;2022-07-23T14:44:38;2.20;;;1.20;;
11004;SDS011;5555;59.622;16.556;2022-07-23T14:47:04;1.27;;;1.00;;
11004;SDS011;5555;59.622;16.556;2022-07-23T14:49:31;2.07;;;1.70;;
11004;SDS011;5555;59.622;16.556;2022-07-23T14:51:57;2.13;;;1.10;;
11004;SDS011;5555;59.622;16.556;2022-07-23T14:54:24;2.07;;;0.97;;
11004;SDS011;5555;59.622;16.556;2022-07-23T14:56:52;0.90;;;0.90;;
11004;SDS011;5555;59.622;16.556;2022-07-23T14:59:18;1.00;;;0.93;;
11004;SDS011;5555;59.622;16.556;2022-07-23T15:01:44;1.93;;;1.00;;
11004;SDS011;5555;59.622;16.556;2022-07-23T15:04:09;4.10;;;1.37;;
11004;SDS011;5555;59.622;16.556;2022-07-23T15:06:35;1.23;;;0.90;;
11004;SDS011;5555;59.622;16.556;2022-07-23T15:09:01;2.10;;;1.00;;
11004;SDS011;5555;59.622;16.556;2022-07-23T15:11:27;1.13;;;0.90;;
11004;SDS011;5555;59.622;16.556;2022-07-23T15:13:56;1.00;;;0.90;;
11004;SDS011;5555;59.622;16.556;2022-07-23T15:16:22;3.23;;;1.00;;
11004;SDS011;5555;59.622;16.556;2022-07-23T15:18:47;2.07;;;1.00;;
11004;SDS011;5555;59.622;16.556;2022-07-23T15:21:13;1.63;;;1.13;;
11004;SDS011;5555;59.622;16.556;2022-07-23T15:23:38;1.20;;;1.10;;
11004;SDS011;5555;59.622;16.556;2022-07-23T15:26:04;1.87;;;1.10;;
11004;SDS011;5555;59.622;16.556;2022-07-23T15:28:31;1.23;;;0.90;;
11004;SDS011;5555;59.622;16.556;2022-07-23T15:30:57;1.43;;;1.00;;
11004;SDS011;5555;59.622;16.556;2022-07-23T15:33:22;0.83;;;0.80;;
11004;SDS011;5555;59.622;16.556;2022-07-23T15:35:48;1.90;;;0.90;;
11004;SDS011;5555;59.622;16.556;2022-07-23T15:38:14;1.30;;;0.90;;
11004;SDS011;5555;59.622;16.556;2022-07-23T15:40:40;2.10;;;1.20;;
11004;SDS011;5555;59.622;16.556;2022-07-23T15:43:05;2.40;;;1.23;;